sensor_id;sensor_type;location;lat;lon;timestamp;temperature;humidity
13296;DHT22;64850;60.390;-1.374;2022-12-10T00:01:21;2.20;99.90
13296;DHT22;64850;60.390;-1.374;2022-12-10T00:03:47;2.20;99.90
13296;DHT22;64850;60.390;-1.374;2022-12-10T00:06:18;2.40;99.90
13296;DHT22;64850;60.390;-1.374;2022-12-10T00:08:45;2.30;99.90
13296;DHT22;64850;60.390;-1.374;2022-12-10T00:11:13;2.30;99.90
13296;DHT22;64850;60.390;-1.374;2022-12-10T00:13:40;2.30;99.90
13296;DHT22;64850;60.390;-1.374;2022-12-10T00:16:08;1.90;99.90
13296;DHT22;64850;60.390;-1.374;2022-12-10T00:18:35;2.30;99.90
13296;DHT22;64850;60.390;-1.374;2022-12-10T00:21:06;2.50;99.90
13296;DHT22;64850;60.390;-1.374;2022-12-10T00:23:32;2.50;99.90
13296;DHT22;64850;60.390;-1.374;2022-12-10T00:26:06;2.50;99.90
13296;DHT22;64850;60.390;-1.374;2022-12-10T00:28:33;2.50;99.90
13296;DHT22;64850;60.390;-1.374;2022-12-10T00:31:07;2.50;99.90
13296;DHT22;64850;60.390;-1.374;2022-12-10T00:33:33;2.40;99.90
13296;DHT22;64850;60.390;-1.374;2022-12-10T00:36:11;2.50;99.90
13296;DHT22;64850;60.390;-1.374;2022-12-10T00:38:41;2.70;99.90
13296;DHT22;64850;60.390;-1.374;2022-12-10T00:41:07;2.70;99.90
13296;DHT22;64850;60.390;-1.374;2022-12-10T00:43:34;2.70;99.90
13296;DHT22;64850;60.390;-1.374;2022-12-10T00:46:01;2.70;99.90
13296;DHT22;64850;60.390;-1.374;2022-12-10T00:48:29;2.80;99.90
13296;DHT22;64850;60.390;-1.374;2022-12-10T00:51:01;2.90;99.90
13296;DHT22;64850;60.390;-1.374;2022-12-10T00:53:29;2.80;99.90
13296;DHT22;64850;60.390;-1.374;2022-12-10T00:55:56;2.80;99.90
13296;DHT22;64850;60.390;-1.374;2022-12-10T00:58:23;2.70;99.90
13296;DHT22;64850;60.390;-1.374;2022-12-10T01:00:49;2.80;99.90
13296;DHT22;64850;60.390;-1.374;2022-12-10T01:03:15;2.80;99.90
13296;DHT22;64850;60.390;-1.374;2022-12-10T01:05:41;2.90;99.90
13296;DHT22;64850;60.390;-1.374;2022-12-10T01:08:07;2.80;99.90
13296;DHT22;64850;60.390;-1.374;2022-12-10T01:10:33;3.00;99.90
13296;DHT22;64850;60.390;-1.374;2022-12-10T01:12:59;2.90;99.90
13296;DHT22;64850;60.390;-1.374;2022-12-10T01:15:25;3.00;99.90
13296;DHT22;64850;60.390;-1.374;2022-12-10T01:17:51;3.10;99.90
13296;DHT22;64850;60.390;-1.374;2022-12-10T01:20:17;3.10;99.90
13296;DHT22;64850;60.390;-1.374;2022-12-10T01:22:43;3.00;99.90
13296;DHT22;64850;60.390;-1.374;2022-12-10T01:25:09;3.00;99.90
13296;DHT22;64850;60.390;-1.374;2022-12-10T01:27:35;2.80;99.90
13296;DHT22;64850;60.390;-1.374;2022-12-10T01:30:01;2.80;99.90
13296;DHT22;64850;60.390;-1.374;2022-12-10T01:32:27;2.80;99.90
13296;DHT22;64850;60.390;-1.374;2022-12-10T01:34:53;3.40;99.90
13296;DHT22;64850;60.390;-1.374;2022-12-10T01:37:18;2.70;99.90
13296;DHT22;64850;60.390;-1.374;2022-12-10T01:39:44;2.70;99.90
13296;DHT22;64850;60.390;-1.374;2022-12-10T01:42:13;2.60;99.90
13296;DHT22;64850;60.390;-1.374;2022-12-10T01:47:08;2.50;99.90
13296;DHT22;64850;60.390;-1.374;2022-12-10T01:49:40;2.60;99.90
13296;DHT22;64850;60.390;-1.374;2022-12-10T01:52:09;2.70;99.90
13296;DHT22;64850;60.390;-1.374;2022-12-10T01:54:42;2.60;99.90
13296;DHT22;64850;60.390;-1.374;2022-12-10T01:57:15;2.50;99.90
13296;DHT22;64850;60.390;-1.374;2022-12-10T01:59:45;2.40;99.90
13296;DHT22;64850;60.390;-1.374;2022-12-10T02:05:21;2.30;99.90
13296;DHT22;64850;60.390;-1.374;2022-12-10T02:08:06;2.40;99.90
13296;DHT22;64850;60.390;-1.374;2022-12-10T02:13:30;2.40;99.90
13296;DHT22;64850;60.390;-1.374;2022-12-10T02:21:07;2.20;99.90
13296;DHT22;64850;60.390;-1.374;2022-12-10T02:23:40;2.20;99.90
13296;DHT22;64850;60.390;-1.374;2022-12-10T02:29:12;1.00;99.90
13296;DHT22;64850;60.390;-1.374;2022-12-10T02:31:46;1.70;99.90
13296;DHT22;64850;60.390;-1.374;2022-12-10T02:34:13;1.60;99.90
13296;DHT22;64850;60.390;-1.374;2022-12-10T02:36:46;1.40;99.90
13296;DHT22;64850;60.390;-1.374;2022-12-10T02:39:15;1.30;99.90
13296;DHT22;64850;60.390;-1.374;2022-12-10T02:41:49;1.30;99.90
13296;DHT22;64850;60.390;-1.374;2022-12-10T02:44:17;1.30;99.90
13296;DHT22;64850;60.390;-1.374;2022-12-10T02:46:46;1.30;99.90
13296;DHT22;64850;60.390;-1.374;2022-12-10T02:49:14;1.40;99.90
13296;DHT22;64850;60.390;-1.374;2022-12-10T02:51:41;1.30;99.90
13296;DHT22;64850;60.390;-1.374;2022-12-10T02:54:37;1.30;99.90
13296;DHT22;64850;60.390;-1.374;2022-12-10T03:00:24;1.40;99.90
13296;DHT22;64850;60.390;-1.374;2022-12-10T03:05:48;1.50;99.90
13296;DHT22;64850;60.390;-1.374;2022-12-10T03:11:19;1.50;99.90
13296;DHT22;64850;60.390;-1.374;2022-12-10T03:14:00;1.60;99.90
13296;DHT22;64850;60.390;-1.374;2022-12-10T03:16:31;1.60;99.90
13296;DHT22;64850;60.390;-1.374;2022-12-10T03:19:01;1.60;99.90
13296;DHT22;64850;60.390;-1.374;2022-12-10T03:21:30;1.60;99.90
13296;DHT22;64850;60.390;-1.374;2022-12-10T03:23:58;1.70;99.90
13296;DHT22;64850;60.390;-1.374;2022-12-10T03:26:25;1.80;99.90
13296;DHT22;64850;60.390;-1.374;2022-12-10T03:28:56;1.70;99.90
13296;DHT22;64850;60.390;-1.374;2022-12-10T03:31:23;0.10;99.90
13296;DHT22;64850;60.390;-1.374;2022-12-10T03:33:49;1.90;99.90
13296;DHT22;64850;60.390;-1.374;2022-12-10T03:36:17;2.00;99.90
13296;DHT22;64850;60.390;-1.374;2022-12-10T03:38:44;2.00;99.90
13296;DHT22;64850;60.390;-1.374;2022-12-10T03:41:12;1.90;99.90
13296;DHT22;64850;60.390;-1.374;2022-12-10T03:43:56;1.80;99.90
13296;DHT22;64850;60.390;-1.374;2022-12-10T03:46:23;1.70;99.90
13296;DHT22;64850;60.390;-1.374;2022-12-10T03:48:50;1.60;99.90
13296;DHT22;64850;60.390;-1.374;2022-12-10T03:51:16;1.50;99.90
13296;DHT22;64850;60.390;-1.374;2022-12-10T03:53:42;1.40;99.90
13296;DHT22;64850;60.390;-1.374;2022-12-10T03:56:08;1.50;99.90
13296;DHT22;64850;60.390;-1.374;2022-12-10T03:58:34;1.50;99.90
13296;DHT22;64850;60.390;-1.374;2022-12-10T04:01:00;1.40;99.90
13296;DHT22;64850;60.390;-1.374;2022-12-10T04:03:26;1.40;99.90
13296;DHT22;64850;60.390;-1.374;2022-12-10T04:05:51;1.40;99.90
13296;DHT22;64850;60.390;-1.374;2022-12-10T04:08:17;1.40;99.90
13296;DHT22;64850;60.390;-1.374;2022-12-10T04:10:43;1.40;99.90
13296;DHT22;64850;60.390;-1.374;2022-12-10T04:13:09;1.40;99.90
13296;DHT22;64850;60.390;-1.374;2022-12-10T04:15:53;1.40;99.90
13296;DHT22;64850;60.390;-1.374;2022-12-10T04:18:37;1.40;99.90
13296;DHT22;64850;60.390;-1.374;2022-12-10T04:21:03;1.40;99.90
13296;DHT22;64850;60.390;-1.374;2022-12-10T04:23:48;1.50;99.90
13296;DHT22;64850;60.390;-1.374;2022-12-10T04:26:32;1.60;99.90
13296;DHT22;64850;60.390;-1.374;2022-12-10T04:29:16;1.50;99.90
13296;DHT22;64850;60.390;-1.374;2022-12-10T04:31:42;1.50;99.90
13296;DHT22;64850;60.390;-1.374;2022-12-10T04:34:08;1.60;99.90
13296;DHT22;64850;60.390;-1.374;2022-12-10T04:36:34;1.60;99.90
13296;DHT22;64850;60.390;-1.374;2022-12-10T04:39:00;1.50;99.90
13296;DHT22;64850;60.390;-1.374;2022-12-10T04:41:26;1.60;99.90
13296;DHT22;64850;60.390;-1.374;2022-12-10T04:43:52;1.60;99.90
13296;DHT22;64850;60.390;-1.374;2022-12-10T04:46:19;0.80;99.90
13296;DHT22;64850;60.390;-1.374;2022-12-10T04:48:45;1.80;99.90
13296;DHT22;64850;60.390;-1.374;2022-12-10T04:51:11;1.80;99.90
13296;DHT22;64850;60.390;-1.374;2022-12-10T04:53:37;1.90;99.90
13296;DHT22;64850;60.390;-1.374;2022-12-10T04:56:03;2.00;99.90
13296;DHT22;64850;60.390;-1.374;2022-12-10T04:58:31;1.90;99.90
13296;DHT22;64850;60.390;-1.374;2022-12-10T05:01:02;1.10;99.90
13296;DHT22;64850;60.390;-1.374;2022-12-10T05:03:28;1.90;99.90
13296;DHT22;64850;60.390;-1.374;2022-12-10T05:05:54;2.00;99.90
13296;DHT22;64850;60.390;-1.374;2022-12-10T05:08:20;1.90;99.90
13296;DHT22;64850;60.390;-1.374;2022-12-10T05:10:46;1.90;99.90
13296;DHT22;64850;60.390;-1.374;2022-12-10T05:13:12;2.10;99.90
13296;DHT22;64850;60.390;-1.374;2022-12-10T05:15:38;1.90;99.90
13296;DHT22;64850;60.390;-1.374;2022-12-10T05:18:04;1.80;99.90
13296;DHT22;64850;60.390;-1.374;2022-12-10T05:20:30;2.10;99.90
13296;DHT22;64850;60.390;-1.374;2022-12-10T05:22:56;2.40;99.90
13296;DHT22;64850;60.390;-1.374;2022-12-10T05:25:41;-0.30;99.90
13296;DHT22;64850;60.390;-1.374;2022-12-10T05:28:22;2.20;99.90
13296;DHT22;64850;60.390;-1.374;2022-12-10T05:30:48;2.10;99.90
13296;DHT22;64850;60.390;-1.374;2022-12-10T05:33:15;2.10;99.90
13296;DHT22;64850;60.390;-1.374;2022-12-10T05:35:41;2.20;99.90
13296;DHT22;64850;60.390;-1.374;2022-12-10T05:38:07;0.90;99.90
13296;DHT22;64850;60.390;-1.374;2022-12-10T05:40:36;2.30;99.90
13296;DHT22;64850;60.390;-1.374;2022-12-10T05:43:03;0.00;99.90
13296;DHT22;64850;60.390;-1.374;2022-12-10T05:45:31;1.40;99.90
13296;DHT22;64850;60.390;-1.374;2022-12-10T05:47:57;2.60;99.90
13296;DHT22;64850;60.390;-1.374;2022-12-10T05:50:22;2.60;99.90
13296;DHT22;64850;60.390;-1.374;2022-12-10T05:52:50;2.60;99.90
13296;DHT22;64850;60.390;-1.374;2022-12-10T05:55:16;2.70;99.90
13296;DHT22;64850;60.390;-1.374;2022-12-10T05:57:42;2.60;99.90
13296;DHT22;64850;60.390;-1.374;2022-12-10T06:00:09;2.60;99.90
13296;DHT22;64850;60.390;-1.374;2022-12-10T06:02:35;2.60;99.90
13296;DHT22;64850;60.390;-1.374;2022-12-10T06:05:01;2.60;99.90
13296;DHT22;64850;60.390;-1.374;2022-12-10T06:07:29;2.60;99.90
13296;DHT22;64850;60.390;-1.374;2022-12-10T06:09:55;2.60;99.90
13296;DHT22;64850;60.390;-1.374;2022-12-10T06:12:21;2.60;99.90
13296;DHT22;64850;60.390;-1.374;2022-12-10T06:14:47;2.50;99.90
13296;DHT22;64850;60.390;-1.374;2022-12-10T06:17:13;2.40;99.90
13296;DHT22;64850;60.390;-1.374;2022-12-10T06:19:39;2.50;99.90
13296;DHT22;64850;60.390;-1.374;2022-12-10T06:22:05;2.50;99.90
13296;DHT22;64850;60.390;-1.374;2022-12-10T06:24:34;2.30;99.90
13296;DHT22;64850;60.390;-1.374;2022-12-10T06:27:02;2.40;99.90
13296;DHT22;64850;60.390;-1.374;2022-12-10T06:29:29;2.20;99.90
13296;DHT22;64850;60.390;-1.374;2022-12-10T06:31:55;2.20;99.90
13296;DHT22;64850;60.390;-1.374;2022-12-10T06:34:21;2.20;99.90
13296;DHT22;64850;60.390;-1.374;2022-12-10T06:36:47;2.00;99.90
13296;DHT22;64850;60.390;-1.374;2022-12-10T06:39:13;1.90;99.90
13296;DHT22;64850;60.390;-1.374;2022-12-10T06:41:39;0.60;99.90
13296;DHT22;64850;60.390;-1.374;2022-12-10T06:44:09;1.70;99.90
13296;DHT22;64850;60.390;-1.374;2022-12-10T06:46:36;1.50;99.90
13296;DHT22;64850;60.390;-1.374;2022-12-10T06:49:02;1.50;99.90
13296;DHT22;64850;60.390;-1.374;2022-12-10T06:51:29;1.40;99.90
13296;DHT22;64850;60.390;-1.374;2022-12-10T06:53:55;1.50;99.90
13296;DHT22;64850;60.390;-1.374;2022-12-10T06:56:21;1.50;99.90
13296;DHT22;64850;60.390;-1.374;2022-12-10T06:58:47;1.60;99.90
13296;DHT22;64850;60.390;-1.374;2022-12-10T07:01:22;1.70;99.90
13296;DHT22;64850;60.390;-1.374;2022-12-10T07:03:53;1.70;99.90
13296;DHT22;64850;60.390;-1.374;2022-12-10T07:06:20;1.70;99.90
13296;DHT22;64850;60.390;-1.374;2022-12-10T07:08:47;1.80;99.90
13296;DHT22;64850;60.390;-1.374;2022-12-10T07:11:15;1.70;99.90
13296;DHT22;64850;60.390;-1.374;2022-12-10T07:13:41;1.80;99.90
13296;DHT22;64850;60.390;-1.374;2022-12-10T07:16:17;1.80;99.90
13296;DHT22;64850;60.390;-1.374;2022-12-10T07:18:44;1.70;99.90
13296;DHT22;64850;60.390;-1.374;2022-12-10T07:21:29;1.60;99.90
13296;DHT22;64850;60.390;-1.374;2022-12-10T07:23:56;1.60;99.90
13296;DHT22;64850;60.390;-1.374;2022-12-10T07:26:34;1.60;99.90
13296;DHT22;64850;60.390;-1.374;2022-12-10T07:29:02;1.60;99.90
13296;DHT22;64850;60.390;-1.374;2022-12-10T07:31:28;1.70;99.90
13296;DHT22;64850;60.390;-1.374;2022-12-10T07:33:56;1.80;99.90
13296;DHT22;64850;60.390;-1.374;2022-12-10T07:36:23;1.90;99.90
13296;DHT22;64850;60.390;-1.374;2022-12-10T07:38:53;1.90;99.90
13296;DHT22;64850;60.390;-1.374;2022-12-10T07:41:20;1.10;99.90
13296;DHT22;64850;60.390;-1.374;2022-12-10T07:43:47;1.90;99.90
13296;DHT22;64850;60.390;-1.374;2022-12-10T07:46:35;2.00;99.90
13296;DHT22;64850;60.390;-1.374;2022-12-10T07:49:02;2.10;99.90
13296;DHT22;64850;60.390;-1.374;2022-12-10T07:51:28;2.20;99.90
13296;DHT22;64850;60.390;-1.374;2022-12-10T07:53:55;2.20;99.90
13296;DHT22;64850;60.390;-1.374;2022-12-10T07:56:23;2.20;99.90
13296;DHT22;64850;60.390;-1.374;2022-12-10T07:58:50;2.10;99.90
13296;DHT22;64850;60.390;-1.374;2022-12-10T08:01:26;2.10;99.90
13296;DHT22;64850;60.390;-1.374;2022-12-10T08:03:54;2.10;99.90
13296;DHT22;64850;60.390;-1.374;2022-12-10T08:06:22;2.00;99.90
13296;DHT22;64850;60.390;-1.374;2022-12-10T08:08:49;2.00;99.90
13296;DHT22;64850;60.390;-1.374;2022-12-10T08:11:18;2.00;99.90
13296;DHT22;64850;60.390;-1.374;2022-12-10T08:13:44;1.60;99.90
13296;DHT22;64850;60.390;-1.374;2022-12-10T08:16:22;2.00;99.90
13296;DHT22;64850;60.390;-1.374;2022-12-10T08:18:48;1.90;99.90
13296;DHT22;64850;60.390;-1.374;2022-12-10T08:21:20;1.90;99.90
13296;DHT22;64850;60.390;-1.374;2022-12-10T08:23:46;1.80;99.90
13296;DHT22;64850;60.390;-1.374;2022-12-10T08:26:18;1.80;99.90
13296;DHT22;64850;60.390;-1.374;2022-12-10T08:28:44;1.70;99.90
13296;DHT22;64850;60.390;-1.374;2022-12-10T08:31:11;1.60;99.90
13296;DHT22;64850;60.390;-1.374;2022-12-10T08:33:38;1.70;99.90
13296;DHT22;64850;60.390;-1.374;2022-12-10T08:36:05;1.50;99.90
13296;DHT22;64850;60.390;-1.374;2022-12-10T08:38:31;1.50;99.90
13296;DHT22;64850;60.390;-1.374;2022-12-10T08:40:57;1.50;99.90
13296;DHT22;64850;60.390;-1.374;2022-12-10T08:43:24;1.50;99.90
13296;DHT22;64850;60.390;-1.374;2022-12-10T08:45:50;1.50;99.90
13296;DHT22;64850;60.390;-1.374;2022-12-10T08:48:15;1.50;99.90
13296;DHT22;64850;60.390;-1.374;2022-12-10T08:50:41;1.50;99.90
13296;DHT22;64850;60.390;-1.374;2022-12-10T08:53:07;1.50;99.90
13296;DHT22;64850;60.390;-1.374;2022-12-10T08:55:37;1.50;99.90
13296;DHT22;64850;60.390;-1.374;2022-12-10T08:58:03;1.50;99.90
13296;DHT22;64850;60.390;-1.374;2022-12-10T09:00:28;1.50;99.90
13296;DHT22;64850;60.390;-1.374;2022-12-10T09:02:54;1.40;99.90
13296;DHT22;64850;60.390;-1.374;2022-12-10T09:05:20;1.30;99.90
13296;DHT22;64850;60.390;-1.374;2022-12-10T09:07:46;1.30;99.90
13296;DHT22;64850;60.390;-1.374;2022-12-10T09:10:12;1.20;99.90
13296;DHT22;64850;60.390;-1.374;2022-12-10T09:12:38;1.30;99.90
13296;DHT22;64850;60.390;-1.374;2022-12-10T09:15:06;1.40;99.90
13296;DHT22;64850;60.390;-1.374;2022-12-10T09:17:35;1.40;99.90
13296;DHT22;64850;60.390;-1.374;2022-12-10T09:20:01;1.40;99.90
13296;DHT22;64850;60.390;-1.374;2022-12-10T09:22:28;2.40;99.90
13296;DHT22;64850;60.390;-1.374;2022-12-10T09:24:54;1.30;99.90
13296;DHT22;64850;60.390;-1.374;2022-12-10T09:27:20;1.30;99.90
13296;DHT22;64850;60.390;-1.374;2022-12-10T09:29:46;0.70;99.90
13296;DHT22;64850;60.390;-1.374;2022-12-10T09:32:12;1.20;99.90
13296;DHT22;64850;60.390;-1.374;2022-12-10T09:34:38;0.00;99.90
13296;DHT22;64850;60.390;-1.374;2022-12-10T09:37:04;1.30;99.90
13296;DHT22;64850;60.390;-1.374;2022-12-10T09:39:29;1.20;99.90
13296;DHT22;64850;60.390;-1.374;2022-12-10T09:47:09;1.10;99.90
13296;DHT22;64850;60.390;-1.374;2022-12-10T09:52:36;1.10;99.90
13296;DHT22;64850;60.390;-1.374;2022-12-10T09:55:34;-0.40;99.90
13296;DHT22;64850;60.390;-1.374;2022-12-10T09:58:03;1.50;99.90
13296;DHT22;64850;60.390;-1.374;2022-12-10T10:00:34;1.80;99.90
13296;DHT22;64850;60.390;-1.374;2022-12-10T10:03:02;2.00;99.90
13296;DHT22;64850;60.390;-1.374;2022-12-10T10:05:51;2.20;99.90
13296;DHT22;64850;60.390;-1.374;2022-12-10T10:08:38;2.30;99.90
13296;DHT22;64850;60.390;-1.374;2022-12-10T10:11:05;2.50;99.90
13296;DHT22;64850;60.390;-1.374;2022-12-10T10:16:23;2.60;99.90
13296;DHT22;64850;60.390;-1.374;2022-12-10T10:19:14;2.80;99.90
13296;DHT22;64850;60.390;-1.374;2022-12-10T10:21:42;2.90;99.90
13296;DHT22;64850;60.390;-1.374;2022-12-10T10:24:18;3.00;99.90
13296;DHT22;64850;60.390;-1.374;2022-12-10T10:26:45;3.30;99.90
13296;DHT22;64850;60.390;-1.374;2022-12-10T10:29:15;3.30;99.90
13296;DHT22;64850;60.390;-1.374;2022-12-10T10:31:42;3.40;99.90
13296;DHT22;64850;60.390;-1.374;2022-12-10T10:34:21;3.70;99.90
13296;DHT22;64850;60.390;-1.374;2022-12-10T10:36:55;3.90;99.90
13296;DHT22;64850;60.390;-1.374;2022-12-10T10:39:30;4.20;99.90
13296;DHT22;64850;60.390;-1.374;2022-12-10T10:41:58;1.90;99.90
13296;DHT22;64850;60.390;-1.374;2022-12-10T10:44:28;4.30;99.90
13296;DHT22;64850;60.390;-1.374;2022-12-10T10:46:59;4.30;99.90
13296;DHT22;64850;60.390;-1.374;2022-12-10T10:49:27;4.10;99.90
13296;DHT22;64850;60.390;-1.374;2022-12-10T10:52:01;4.00;99.90
13296;DHT22;64850;60.390;-1.374;2022-12-10T10:54:41;3.50;99.90
13296;DHT22;64850;60.390;-1.374;2022-12-10T10:57:32;2.90;99.90
13296;DHT22;64850;60.390;-1.374;2022-12-10T11:00:31;2.60;99.90
13296;DHT22;64850;60.390;-1.374;2022-12-10T11:02:58;2.40;99.90
13296;DHT22;64850;60.390;-1.374;2022-12-10T11:05:29;2.20;99.90
13296;DHT22;64850;60.390;-1.374;2022-12-10T11:08:02;2.20;99.90
13296;DHT22;64850;60.390;-1.374;2022-12-10T11:10:29;2.10;99.90
13296;DHT22;64850;60.390;-1.374;2022-12-10T11:13:06;2.20;99.90
13296;DHT22;64850;60.390;-1.374;2022-12-10T11:15:37;2.10;99.90
13296;DHT22;64850;60.390;-1.374;2022-12-10T11:18:24;2.20;99.90
13296;DHT22;64850;60.390;-1.374;2022-12-10T11:21:01;2.30;99.90
13296;DHT22;64850;60.390;-1.374;2022-12-10T11:23:36;2.70;99.90
13296;DHT22;64850;60.390;-1.374;2022-12-10T11:28:36;2.10;99.90
13296;DHT22;64850;60.390;-1.374;2022-12-10T11:42:22;1.60;99.90
13296;DHT22;64850;60.390;-1.374;2022-12-10T11:50:46;1.80;99.90
13296;DHT22;64850;60.390;-1.374;2022-12-10T11:56:31;2.30;99.90
13296;DHT22;64850;60.390;-1.374;2022-12-10T12:02:24;2.40;99.90
13296;DHT22;64850;60.390;-1.374;2022-12-10T12:05:24;2.40;99.90
13296;DHT22;64850;60.390;-1.374;2022-12-10T12:13:28;2.40;99.90
13296;DHT22;64850;60.390;-1.374;2022-12-10T12:16:16;2.40;99.90
13296;DHT22;64850;60.390;-1.374;2022-12-10T12:21:11;2.60;99.90
13296;DHT22;64850;60.390;-1.374;2022-12-10T12:26:26;2.70;99.90
13296;DHT22;64850;60.390;-1.374;2022-12-10T12:31:46;2.80;99.90
13296;DHT22;64850;60.390;-1.374;2022-12-10T12:34:21;2.80;99.90
13296;DHT22;64850;60.390;-1.374;2022-12-10T12:36:52;2.90;99.90
13296;DHT22;64850;60.390;-1.374;2022-12-10T12:39:41;3.00;99.90
13296;DHT22;64850;60.390;-1.374;2022-12-10T12:51:22;3.20;99.90
13296;DHT22;64850;60.390;-1.374;2022-12-10T12:53:50;2.90;99.90
13296;DHT22;64850;60.390;-1.374;2022-12-10T13:01:54;2.80;99.90
13296;DHT22;64850;60.390;-1.374;2022-12-10T13:04:27;2.80;99.90
13296;DHT22;64850;60.390;-1.374;2022-12-10T13:09:49;2.70;99.90
13296;DHT22;64850;60.390;-1.374;2022-12-10T13:12:17;2.60;99.90
13296;DHT22;64850;60.390;-1.374;2022-12-10T13:17:36;2.60;99.90
13296;DHT22;64850;60.390;-1.374;2022-12-10T13:20:28;2.60;99.90
13296;DHT22;64850;60.390;-1.374;2022-12-10T13:22:58;2.60;99.90
13296;DHT22;64850;60.390;-1.374;2022-12-10T13:25:56;1.60;99.90
13296;DHT22;64850;60.390;-1.374;2022-12-10T13:34:06;2.60;99.90
13296;DHT22;64850;60.390;-1.374;2022-12-10T13:45:01;3.10;99.90
13296;DHT22;64850;60.390;-1.374;2022-12-10T13:48:15;3.00;99.90
13296;DHT22;64850;60.390;-1.374;2022-12-10T13:51:11;2.80;99.90
13296;DHT22;64850;60.390;-1.374;2022-12-10T13:56:51;2.40;99.90
13296;DHT22;64850;60.390;-1.374;2022-12-10T14:07:46;2.30;99.90
13296;DHT22;64850;60.390;-1.374;2022-12-10T14:10:16;2.40;99.90
13296;DHT22;64850;60.390;-1.374;2022-12-10T14:12:46;2.50;99.90
13296;DHT22;64850;60.390;-1.374;2022-12-10T14:15:21;2.50;99.90
13296;DHT22;64850;60.390;-1.374;2022-12-10T14:17:51;2.60;99.90
13296;DHT22;64850;60.390;-1.374;2022-12-10T14:20:22;2.70;99.90
13296;DHT22;64850;60.390;-1.374;2022-12-10T14:22:54;2.80;99.90
13296;DHT22;64850;60.390;-1.374;2022-12-10T14:25:45;2.80;99.90
13296;DHT22;64850;60.390;-1.374;2022-12-10T14:28:14;2.90;99.90
13296;DHT22;64850;60.390;-1.374;2022-12-10T14:30:45;2.80;99.90
13296;DHT22;64850;60.390;-1.374;2022-12-10T14:33:17;2.80;99.90
13296;DHT22;64850;60.390;-1.374;2022-12-10T14:35:52;2.90;99.90
13296;DHT22;64850;60.390;-1.374;2022-12-10T14:38:23;2.90;99.90
13296;DHT22;64850;60.390;-1.374;2022-12-10T14:40:50;2.30;99.90
13296;DHT22;64850;60.390;-1.374;2022-12-10T14:43:22;2.70;99.90
13296;DHT22;64850;60.390;-1.374;2022-12-10T14:45:55;2.60;99.90
13296;DHT22;64850;60.390;-1.374;2022-12-10T14:48:22;2.50;99.90
13296;DHT22;64850;60.390;-1.374;2022-12-10T14:50:48;2.50;99.90
13296;DHT22;64850;60.390;-1.374;2022-12-10T14:53:22;2.60;99.90
13296;DHT22;64850;60.390;-1.374;2022-12-10T14:55:53;2.60;99.90
13296;DHT22;64850;60.390;-1.374;2022-12-10T14:58:41;2.70;99.90
13296;DHT22;64850;60.390;-1.374;2022-12-10T15:03:53;2.40;99.90
13296;DHT22;64850;60.390;-1.374;2022-12-10T15:06:20;2.40;99.90
13296;DHT22;64850;60.390;-1.374;2022-12-10T15:08:47;2.30;99.90
13296;DHT22;64850;60.390;-1.374;2022-12-10T15:11:17;2.30;99.90
13296;DHT22;64850;60.390;-1.374;2022-12-10T15:13:47;2.00;99.90
13296;DHT22;64850;60.390;-1.374;2022-12-10T15:21:42;2.00;99.90
13296;DHT22;64850;60.390;-1.374;2022-12-10T15:24:39;2.00;99.90
13296;DHT22;64850;60.390;-1.374;2022-12-10T15:27:35;2.10;99.90
13296;DHT22;64850;60.390;-1.374;2022-12-10T15:30:23;2.00;99.90
13296;DHT22;64850;60.390;-1.374;2022-12-10T15:32:49;2.00;99.90
13296;DHT22;64850;60.390;-1.374;2022-12-10T15:35:15;2.00;99.90
13296;DHT22;64850;60.390;-1.374;2022-12-10T15:37:43;1.90;99.90
13296;DHT22;64850;60.390;-1.374;2022-12-10T15:40:28;1.80;99.90
13296;DHT22;64850;60.390;-1.374;2022-12-10T15:43:39;1.70;99.90
13296;DHT22;64850;60.390;-1.374;2022-12-10T15:46:04;1.60;99.90
13296;DHT22;64850;60.390;-1.374;2022-12-10T15:48:30;1.50;99.90
13296;DHT22;64850;60.390;-1.374;2022-12-10T15:50:56;1.50;99.90
13296;DHT22;64850;60.390;-1.374;2022-12-10T15:53:36;1.40;99.90
13296;DHT22;64850;60.390;-1.374;2022-12-10T15:56:03;1.50;99.90
13296;DHT22;64850;60.390;-1.374;2022-12-10T15:58:29;1.40;99.90
13296;DHT22;64850;60.390;-1.374;2022-12-10T16:00:55;-0.60;99.90
13296;DHT22;64850;60.390;-1.374;2022-12-10T16:03:21;1.40;99.90
13296;DHT22;64850;60.390;-1.374;2022-12-10T16:05:48;1.50;99.90
13296;DHT22;64850;60.390;-1.374;2022-12-10T16:08:28;1.80;99.90
13296;DHT22;64850;60.390;-1.374;2022-12-10T16:10:56;1.60;99.90
13296;DHT22;64850;60.390;-1.374;2022-12-10T16:13:26;1.70;99.90
13296;DHT22;64850;60.390;-1.374;2022-12-10T16:15:57;1.60;99.90
13296;DHT22;64850;60.390;-1.374;2022-12-10T16:18:24;1.60;99.90
13296;DHT22;64850;60.390;-1.374;2022-12-10T16:20:50;1.70;99.90
13296;DHT22;64850;60.390;-1.374;2022-12-10T16:23:16;1.60;99.90
13296;DHT22;64850;60.390;-1.374;2022-12-10T16:25:43;1.60;99.90
13296;DHT22;64850;60.390;-1.374;2022-12-10T16:28:15;1.50;99.90
13296;DHT22;64850;60.390;-1.374;2022-12-10T16:30:44;1.60;99.90
13296;DHT22;64850;60.390;-1.374;2022-12-10T16:33:11;1.60;99.90
13296;DHT22;64850;60.390;-1.374;2022-12-10T16:35:37;1.50;99.90
13296;DHT22;64850;60.390;-1.374;2022-12-10T16:38:03;1.50;99.90
13296;DHT22;64850;60.390;-1.374;2022-12-10T16:40:31;1.20;99.90
13296;DHT22;64850;60.390;-1.374;2022-12-10T16:42:57;1.40;99.90
13296;DHT22;64850;60.390;-1.374;2022-12-10T16:45:34;1.20;99.90
13296;DHT22;64850;60.390;-1.374;2022-12-10T16:48:00;1.20;99.90
13296;DHT22;64850;60.390;-1.374;2022-12-10T16:50:26;1.10;99.90
13296;DHT22;64850;60.390;-1.374;2022-12-10T16:52:54;1.10;99.90
13296;DHT22;64850;60.390;-1.374;2022-12-10T16:55:24;1.20;99.90
13296;DHT22;64850;60.390;-1.374;2022-12-10T16:57:54;-0.20;99.90
13296;DHT22;64850;60.390;-1.374;2022-12-10T17:00:23;1.20;99.90
13296;DHT22;64850;60.390;-1.374;2022-12-10T17:02:50;1.40;99.90
13296;DHT22;64850;60.390;-1.374;2022-12-10T17:05:28;1.30;99.90
13296;DHT22;64850;60.390;-1.374;2022-12-10T17:07:55;1.50;99.90
13296;DHT22;64850;60.390;-1.374;2022-12-10T17:10:20;1.50;99.90
13296;DHT22;64850;60.390;-1.374;2022-12-10T17:13:10;0.00;99.90
13296;DHT22;64850;60.390;-1.374;2022-12-10T17:15:38;1.70;99.90
13296;DHT22;64850;60.390;-1.374;2022-12-10T17:18:04;1.90;99.90
13296;DHT22;64850;60.390;-1.374;2022-12-10T17:20:31;1.10;99.90
13296;DHT22;64850;60.390;-1.374;2022-12-10T17:22:57;1.50;99.90
13296;DHT22;64850;60.390;-1.374;2022-12-10T17:25:23;1.50;99.90
13296;DHT22;64850;60.390;-1.374;2022-12-10T17:27:49;1.60;99.90
13296;DHT22;64850;60.390;-1.374;2022-12-10T17:30:15;1.50;99.90
13296;DHT22;64850;60.390;-1.374;2022-12-10T17:32:42;1.50;99.90
13296;DHT22;64850;60.390;-1.374;2022-12-10T17:35:09;1.40;99.90
13296;DHT22;64850;60.390;-1.374;2022-12-10T17:37:36;1.60;99.90
13296;DHT22;64850;60.390;-1.374;2022-12-10T17:40:13;1.70;99.90
13296;DHT22;64850;60.390;-1.374;2022-12-10T17:42:40;1.50;99.90
13296;DHT22;64850;60.390;-1.374;2022-12-10T17:45:06;1.50;99.90
13296;DHT22;64850;60.390;-1.374;2022-12-10T17:47:32;1.60;99.90
13296;DHT22;64850;60.390;-1.374;2022-12-10T17:49:58;1.30;99.90
13296;DHT22;64850;60.390;-1.374;2022-12-10T17:52:24;1.20;99.90
13296;DHT22;64850;60.390;-1.374;2022-12-10T17:54:50;1.20;99.90
13296;DHT22;64850;60.390;-1.374;2022-12-10T17:57:21;1.30;99.90
13296;DHT22;64850;60.390;-1.374;2022-12-10T17:59:48;1.20;99.90